Terminal Aerodrome Forecast
Issued by NWS Portland, OR

Current Version | Previous Version | Text Only | Print | Product List | Glossary On
Versions: 1 2 3 4 5 6 7 8 9 10 11 12 13 14 15 16 17 18 19 20 21 22 23 24 25 26 27 28 29 30 31 32 33 34 35 36 37 38 39 40 41 42 43 44 45 46 47 48 49
000
FTUS46 KPQR 301926 AAB
TAFAST
TAF AMD
KAST 301926Z 3019/0118 28008KT P6SM VCSH SCT019 BKN035 BKN050
     FM010000 29010KT P6SM OVC100
     FM010700 00000KT 5SM BR OVC020=

USA.gov is the U.S. government's official web portal to all federal, state and local government web resources and services.